Time,TemperatureF,DewpointF,PressureIn,WindDirection,WindDirectionDegrees,WindSpeedMPH,WindSpeedGustMPH,Humidity,HourlyPrecipIn,Conditions,Clouds,dailyrainin,SolarRadiationWatts/m^2,SoftwareType,DateUTC
2013-05-09 00:00:00,59.2,58.1,30.04,ESE,113,0.0,0.0,96,0.00,,---,0.09,0.00,VWS V14.01,2013-05-09 04:00:00,
2013-05-09 00:01:00,59.2,58.1,30.04,ESE,113,0.0,0.0,96,0.00,,---,0.09,0.00,VWS V14.01,2013-05-09 04:01:00,
2013-05-09 00:06:00,59.2,58.3,30.04,ESE,113,0.0,0.0,97,0.00,,---,0.00,0.00,VWS V14.01,2013-05-09 04:06:00,
2013-05-09 00:11:00,59.2,58.1,30.04,East,87,0.0,3.0,96,0.00,,---,0.00,0.00,VWS V14.01,2013-05-09 04:11:00,
2013-05-09 00:16:00,59.2,58.3,30.03,NE,40,0.0,3.0,97,0.00,,---,0.00,0.00,VWS V14.01,2013-05-09 04:16:00,
2013-05-09 00:21:00,59.2,58.3,30.03,NE,40,0.0,0.0,97,0.00,,---,0.00,0.00,VWS V14.01,2013-05-09 04:21:00,
2013-05-09 00:26:00,59.2,58.3,30.03,East,88,0.0,7.0,97,0.00,,---,0.00,0.00,VWS V14.01,2013-05-09 04:26:00,
2013-05-09 00:31:00,59.2,58.3,30.03,East,88,0.0,7.0,97,0.00,,---,0.00,0.00,VWS V14.01,2013-05-09 04:31:00,
2013-05-09 00:36:00,59.2,58.3,30.03,East,88,0.0,1.0,97,0.00,,---,0.00,0.00,VWS V14.01,2013-05-09 04:36:00,
2013-05-09 00:41:00,59.1,58.2,30.03,East,86,3.0,3.0,97,0.00,,---,0.00,0.00,VWS V14.01,2013-05-09 04:41:00,
2013-05-09 00:46:00,59.1,58.2,30.02,ESE,109,0.0,0.0,97,0.00,,---,0.00,0.00,VWS V14.01,2013-05-09 04:46:00,
2013-05-09 00:51:00,59.1,58.2,30.02,ESE,109,0.0,0.0,97,0.00,,---,0.00,0.00,VWS V14.01,2013-05-09 04:51:00,
2013-05-09 00:56:00,59.1,58.2,30.02,ESE,114,0.0,3.0,97,0.00,,---,0.00,0.00,VWS V14.01,2013-05-09 04:56:00,
2013-05-09 01:01:00,59.1,58.2,30.02,ESE,107,2.0,3.0,97,0.00,,---,0.00,0.00,VWS V14.01,2013-05-09 05:01:00,
2013-05-09 01:06:00,58.9,58.0,30.02,ENE,64,0.0,6.0,97,0.01,,---,0.01,0.00,VWS V14.01,2013-05-09 05:06:00,
2013-05-09 01:11:00,58.9,58.0,30.02,SE,138,3.0,6.0,97,0.02,,---,0.02,0.00,VWS V14.01,2013-05-09 05:11:00,
2013-05-09 01:16:00,58.8,58.0,30.02,East,101,2.0,6.0,97,0.02,,---,0.02,0.00,VWS V14.01,2013-05-09 05:16:00,
2013-05-09 01:21:00,58.8,58.0,30.02,ESE,103,2.0,2.0,97,0.06,,---,0.06,0.00,VWS V14.01,2013-05-09 05:21:00,
2013-05-09 01:26:00,58.6,57.8,30.02,ESE,103,0.0,3.0,97,0.07,,---,0.07,0.00,VWS V14.01,2013-05-09 05:26:00,
2013-05-09 01:31:00,58.6,57.8,30.01,SE,128,3.0,3.0,97,0.14,,---,0.14,0.00,VWS V14.01,2013-05-09 05:31:00,
2013-05-09 01:36:00,58.5,57.7,30.01,SSE,153,0.0,3.0,97,0.16,,---,0.16,0.00,VWS V14.01,2013-05-09 05:36:00,
2013-05-09 01:41:00,58.5,57.7,30.01,SE,132,0.0,3.0,97,0.16,,---,0.16,0.00,VWS V14.01,2013-05-09 05:41:00,
2013-05-09 01:46:00,58.3,57.7,30.00,SE,132,0.0,3.0,98,0.16,,---,0.16,0.00,VWS V14.01,2013-05-09 05:46:00,
2013-05-09 01:51:00,58.3,57.7,30.00,SE,132,0.0,0.0,98,0.17,,---,0.17,0.00,VWS V14.01,2013-05-09 05:51:00,
2013-05-09 01:56:00,58.3,57.7,30.00,East,81,0.0,1.0,98,0.18,,---,0.18,0.00,VWS V14.01,2013-05-09 05:56:00,
2013-05-09 02:01:00,58.2,57.6,30.00,SSE,157,0.0,0.0,98,0.20,,---,0.20,0.00,VWS V14.01,2013-05-09 06:01:00,
2013-05-09 02:06:00,58.2,57.6,30.00,SSE,158,0.0,2.0,98,0.21,,---,0.21,0.00,VWS V14.01,2013-05-09 06:06:00,
2013-05-09 02:11:00,58.0,57.4,30.00,SSE,158,0.0,2.0,98,0.22,,---,0.22,0.00,VWS V14.01,2013-05-09 06:11:00,
2013-05-09 02:16:00,58.0,57.4,30.00,East,88,7.0,7.0,98,0.30,,---,0.32,0.00,VWS V14.01,2013-05-09 06:16:00,
2013-05-09 02:21:00,57.9,57.3,29.99,ESE,105,2.0,7.0,98,0.35,,---,0.37,0.00,VWS V14.01,2013-05-09 06:21:00,
2013-05-09 02:26:00,57.5,56.9,29.99,ESE,105,2.0,7.0,98,0.36,,---,0.38,0.00,VWS V14.01,2013-05-09 06:26:00,
2013-05-09 02:31:00,57.4,56.8,29.99,ESE,105,2.0,2.0,98,0.27,,---,0.41,0.00,VWS V14.01,2013-05-09 06:31:00,
2013-05-09 02:36:00,57.2,56.6,29.99,ESE,105,2.0,2.0,98,0.29,,---,0.43,0.00,VWS V14.01,2013-05-09 06:36:00,
2013-05-09 02:41:00,57.1,56.5,29.99,ESE,105,2.0,2.0,98,0.29,,---,0.43,0.00,VWS V14.01,2013-05-09 06:41:00,
2013-05-09 02:46:00,56.9,56.3,29.99,ESE,105,2.0,2.0,98,0.28,,---,0.44,0.00,VWS V14.01,2013-05-09 06:46:00,
2013-05-09 02:51:00,56.9,56.3,29.99,ESE,105,2.0,2.0,98,0.28,,---,0.44,0.00,VWS V14.01,2013-05-09 06:51:00,
2013-05-09 02:56:00,56.9,56.3,29.99,ESE,105,2.0,2.0,98,0.28,,---,0.44,0.00,VWS V14.01,2013-05-09 06:56:00,
2013-05-09 03:01:00,56.9,56.3,30.00,ESE,105,2.0,2.0,98,0.24,,---,0.44,0.00,VWS V14.01,2013-05-09 07:01:00,
2013-05-09 03:06:00,56.9,56.3,29.99,ESE,105,2.0,2.0,98,0.24,,---,0.44,0.00,VWS V14.01,2013-05-09 07:06:00,
2013-05-09 03:11:00,56.8,56.2,29.99,ESE,105,2.0,2.0,98,0.24,,---,0.44,0.00,VWS V14.01,2013-05-09 07:11:00,
2013-05-09 03:16:00,56.8,56.2,29.99,ESE,105,2.0,2.0,98,0.14,,---,0.44,0.00,VWS V14.01,2013-05-09 07:16:00,
2013-05-09 03:21:00,56.8,56.2,29.99,ESE,105,2.0,2.0,98,0.14,,---,0.44,0.00,VWS V14.01,2013-05-09 07:21:00,
2013-05-09 03:26:00,56.8,56.2,29.99,ESE,105,2.0,2.0,98,0.14,,---,0.44,0.00,VWS V14.01,2013-05-09 07:26:00,
2013-05-09 03:31:00,56.6,56.0,29.99,ESE,105,2.0,2.0,98,0.04,,---,0.44,0.00,VWS V14.01,2013-05-09 07:31:00,
2013-05-09 03:36:00,56.6,56.0,29.99,ESE,105,2.0,2.0,98,0.04,,---,0.44,0.00,VWS V14.01,2013-05-09 07:36:00,
2013-05-09 03:41:00,56.5,55.9,29.99,ESE,105,2.0,2.0,98,0.04,,---,0.44,0.00,VWS V14.01,2013-05-09 07:41:00,
2013-05-09 03:46:00,56.5,55.9,29.99,ESE,105,2.0,2.0,98,0.00,,---,0.44,0.00,VWS V14.01,2013-05-09 07:46:00,
2013-05-09 03:51:00,56.5,55.9,29.99,ESE,105,2.0,2.0,98,0.00,,---,0.44,0.00,VWS V14.01,2013-05-09 07:51:00,
2013-05-09 03:56:00,56.5,55.9,29.99,ESE,105,2.0,2.0,98,0.00,,---,0.44,0.00,VWS V14.01,2013-05-09 07:56:00,
2013-05-09 04:01:00,56.4,55.8,29.99,ESE,105,2.0,2.0,98,0.00,,---,0.44,0.00,VWS V14.01,2013-05-09 08:01:00,
2013-05-09 04:06:00,56.2,55.7,29.99,ESE,105,2.0,2.0,98,0.00,,---,0.44,0.00,VWS V14.01,2013-05-09 08:06:00,
2013-05-09 04:11:00,56.2,55.7,29.99,ESE,105,2.0,2.0,98,0.00,,---,0.44,0.00,VWS V14.01,2013-05-09 08:11:00,
2013-05-09 04:16:00,56.1,55.5,29.99,ESE,105,2.0,2.0,98,0.00,,---,0.44,0.00,VWS V14.01,2013-05-09 08:16:00,
2013-05-09 04:21:00,56.1,55.5,29.99,ESE,105,2.0,2.0,98,0.00,,---,0.44,0.00,VWS V14.01,2013-05-09 08:21:00,
2013-05-09 04:26:00,55.9,55.3,29.98,ESE,105,2.0,2.0,98,0.00,,---,0.44,0.00,VWS V14.01,2013-05-09 08:26:00,
2013-05-09 04:31:00,55.9,55.3,29.99,ESE,105,2.0,2.0,98,0.00,,---,0.44,0.00,VWS V14.01,2013-05-09 08:31:00,
2013-05-09 04:36:00,55.8,55.2,29.98,ESE,105,2.0,2.0,98,0.00,,---,0.44,0.00,VWS V14.01,2013-05-09 08:36:00,
2013-05-09 04:41:00,55.8,55.2,29.98,ESE,105,2.0,2.0,98,0.00,,---,0.44,0.00,VWS V14.01,2013-05-09 08:41:00,
2013-05-09 04:46:00,55.9,55.6,29.98,ESE,105,2.0,2.0,99,0.00,,---,0.44,0.00,VWS V14.01,2013-05-09 08:46:00,
2013-05-09 04:51:00,55.8,55.5,29.98,ESE,105,2.0,2.0,99,0.00,,---,0.44,0.00,VWS V14.01,2013-05-09 08:51:00,
2013-05-09 04:56:00,55.8,55.5,29.98,ESE,105,2.0,2.0,99,0.00,,---,0.44,0.00,VWS V14.01,2013-05-09 08:56:00,
2013-05-09 05:01:00,55.8,55.5,29.98,ESE,105,2.0,2.0,99,0.00,,---,0.44,0.00,VWS V14.01,2013-05-09 09:01:00,
2013-05-09 05:06:00,55.6,55.3,29.98,ESE,105,2.0,2.0,99,0.00,,---,0.44,0.00,VWS V14.01,2013-05-09 09:06:00,
2013-05-09 05:11:00,55.6,55.3,29.98,ESE,105,2.0,2.0,99,0.00,,---,0.44,0.00,VWS V14.01,2013-05-09 09:11:00,
2013-05-09 05:16:00,55.6,55.3,29.98,ESE,105,2.0,2.0,99,0.00,,---,0.44,0.00,VWS V14.01,2013-05-09 09:16:00,
2013-05-09 05:22:00,55.5,55.2,29.98,ESE,105,2.0,2.0,99,0.00,,---,0.44,0.00,VWS V14.01,2013-05-09 09:22:00,
2013-05-09 05:27:00,55.6,55.3,29.98,ESE,105,2.0,2.0,99,0.00,,---,0.44,0.00,VWS V14.01,2013-05-09 09:27:00,
2013-05-09 05:32:00,55.6,55.3,29.97,ESE,105,2.0,2.0,99,0.00,,---,0.44,0.00,VWS V14.01,2013-05-09 09:32:00,
2013-05-09 05:37:00,55.6,55.3,29.97,ESE,105,2.0,2.0,99,0.00,,---,0.44,0.00,VWS V14.01,2013-05-09 09:37:00,
2013-05-09 05:42:00,55.6,55.3,29.97,ESE,105,2.0,2.0,99,0.00,,---,0.44,0.00,VWS V14.01,2013-05-09 09:42:00,
2013-05-09 05:47:00,55.6,55.3,29.97,ESE,105,2.0,2.0,99,0.00,,---,0.44,0.00,VWS V14.01,2013-05-09 09:47:00,
2013-05-09 05:52:00,55.5,55.2,29.97,ESE,105,2.0,2.0,99,0.00,,---,0.44,5.00,VWS V14.01,2013-05-09 09:52:00,
2013-05-09 05:57:00,55.5,55.2,29.97,ESE,105,2.0,2.0,99,0.00,,---,0.44,7.00,VWS V14.01,2013-05-09 09:57:00,
2013-05-09 06:02:00,55.5,55.2,29.97,ESE,105,2.0,2.0,99,0.00,,---,0.44,9.00,VWS V14.01,2013-05-09 10:02:00,
2013-05-09 06:07:00,55.5,55.2,29.98,ESE,105,2.0,2.0,99,0.00,,---,0.44,9.00,VWS V14.01,2013-05-09 10:07:00,
2013-05-09 06:12:00,55.5,55.2,29.98,ESE,105,2.0,2.0,99,0.00,,---,0.44,11.00,VWS V14.01,2013-05-09 10:12:00,
2013-05-09 06:17:00,55.6,55.3,29.98,ESE,105,2.0,2.0,99,0.00,,---,0.44,12.00,VWS V14.01,2013-05-09 10:17:00,
2013-05-09 06:22:00,55.8,55.5,29.98,ESE,105,2.0,2.0,99,0.00,,---,0.44,19.00,VWS V14.01,2013-05-09 10:22:00,
2013-05-09 06:27:00,55.8,55.5,29.98,ESE,105,2.0,2.0,99,0.00,,---,0.44,19.00,VWS V14.01,2013-05-09 10:27:00,
2013-05-09 06:32:00,55.8,55.5,29.98,ESE,105,2.0,2.0,99,0.00,,---,0.44,9.00,VWS V14.01,2013-05-09 10:32:00,
2013-05-09 06:37:00,55.8,55.5,29.98,ESE,105,2.0,2.0,99,0.00,,---,0.44,9.00,VWS V14.01,2013-05-09 10:37:00,
2013-05-09 06:42:00,55.8,55.5,29.98,ESE,105,2.0,2.0,99,0.00,,---,0.44,25.00,VWS V14.01,2013-05-09 10:42:00,
2013-05-09 06:47:00,55.8,55.5,29.98,ESE,105,2.0,2.0,99,0.00,,---,0.44,23.00,VWS V14.01,2013-05-09 10:47:00,
2013-05-09 06:52:00,55.8,55.5,29.97,ESE,105,2.0,2.0,99,0.00,,---,0.44,25.00,VWS V14.01,2013-05-09 10:52:00,
2013-05-09 06:57:00,55.9,55.6,29.98,ESE,105,2.0,2.0,99,0.03,,---,0.47,33.00,VWS V14.01,2013-05-09 10:57:00,
2013-05-09 07:02:00,55.9,55.6,29.98,SE,125,0.0,0.0,99,0.03,,---,0.47,47.00,VWS V14.01,2013-05-09 11:02:00,
2013-05-09 07:07:00,55.9,55.6,29.98,SE,125,0.0,0.0,99,0.03,,---,0.47,63.00,VWS V14.01,2013-05-09 11:07:00,
2013-05-09 07:12:00,56.1,55.8,29.98,SE,125,0.0,1.0,99,0.03,,---,0.47,69.00,VWS V14.01,2013-05-09 11:12:00,
2013-05-09 07:17:00,56.1,55.8,29.98,SE,125,0.0,0.0,99,0.03,,---,0.47,86.00,VWS V14.01,2013-05-09 11:17:00,
2013-05-09 07:22:00,56.4,56.1,29.98,SE,125,0.0,0.0,99,0.03,,---,0.47,74.00,VWS V14.01,2013-05-09 11:22:00,
2013-05-09 07:27:00,56.4,56.4,29.98,SE,125,0.0,0.0,100,0.03,,---,0.47,42.00,VWS V14.01,2013-05-09 11:27:00,
2013-05-09 07:32:00,56.5,56.5,29.98,SE,125,0.0,0.0,100,0.03,,---,0.47,95.00,VWS V14.01,2013-05-09 11:32:00,
2013-05-09 07:37:00,56.6,56.6,29.98,SE,125,0.0,0.0,100,0.03,,---,0.47,46.00,VWS V14.01,2013-05-09 11:37:00,
2013-05-09 07:42:00,56.5,56.5,29.98,SE,125,0.0,0.0,100,0.03,,---,0.47,91.00,VWS V14.01,2013-05-09 11:42:00,
2013-05-09 07:47:00,56.6,56.6,29.98,SE,125,0.0,0.0,100,0.03,,---,0.47,93.00,VWS V14.01,2013-05-09 11:47:00,
2013-05-09 07:52:00,56.6,56.6,29.98,SE,125,0.0,0.0,100,0.03,,---,0.47,130.00,VWS V14.01,2013-05-09 11:52:00,
2013-05-09 07:57:00,56.9,56.9,29.98,SE,125,0.0,0.0,100,0.03,,---,0.47,137.00,VWS V14.01,2013-05-09 11:57:00,
2013-05-09 08:02:00,57.2,57.2,29.98,SE,125,0.0,0.0,100,0.00,,---,0.47,142.00,VWS V14.01,2013-05-09 12:02:00,
2013-05-09 08:07:00,57.4,57.4,29.99,SE,125,0.0,0.0,100,0.00,,---,0.47,114.00,VWS V14.01,2013-05-09 12:07:00,
2013-05-09 08:12:00,57.2,57.2,29.99,SE,125,0.0,0.0,100,0.00,,---,0.47,91.00,VWS V14.01,2013-05-09 12:12:00,
2013-05-09 08:17:00,57.5,57.5,29.99,SE,125,0.0,0.0,100,0.00,,---,0.47,90.00,VWS V14.01,2013-05-09 12:17:00,
2013-05-09 08:22:00,57.5,57.2,29.99,SE,125,0.0,0.0,99,0.00,,---,0.47,111.00,VWS V14.01,2013-05-09 12:22:00,
2013-05-09 08:27:00,57.5,57.5,29.98,SE,125,0.0,0.0,100,0.00,,---,0.47,105.00,VWS V14.01,2013-05-09 12:27:00,
2013-05-09 08:32:00,57.4,57.1,29.98,SE,124,0.0,0.0,99,0.00,,---,0.47,118.00,VWS V14.01,2013-05-09 12:32:00,
2013-05-09 08:37:00,57.7,57.4,29.98,SE,124,0.0,0.0,99,0.00,,---,0.47,130.00,VWS V14.01,2013-05-09 12:37:00,
2013-05-09 08:42:00,57.7,57.4,29.98,SE,124,0.0,0.0,99,0.00,,---,0.47,137.00,VWS V14.01,2013-05-09 12:42:00,
2013-05-09 08:47:00,57.9,57.6,29.98,SE,124,0.0,0.0,99,0.00,,---,0.47,174.00,VWS V14.01,2013-05-09 12:47:00,
2013-05-09 08:52:00,58.2,57.9,29.98,ESE,117,2.0,2.0,99,0.00,,---,0.47,172.00,VWS V14.01,2013-05-09 12:52:00,
2013-05-09 08:57:00,58.2,57.9,29.98,ESE,118,0.0,3.0,99,0.00,,---,0.47,214.00,VWS V14.01,2013-05-09 12:57:00,
2013-05-09 09:02:00,58.3,58.0,29.98,ESE,122,0.0,0.0,99,0.00,,---,0.47,237.00,VWS V14.01,2013-05-09 13:02:00,
2013-05-09 09:07:00,58.6,58.3,29.98,ESE,122,0.0,0.0,99,0.00,,---,0.47,188.00,VWS V14.01,2013-05-09 13:07:00,
2013-05-09 09:12:00,58.5,57.9,29.97,ESE,116,0.0,0.0,98,0.00,,---,0.47,190.00,VWS V14.01,2013-05-09 13:12:00,
2013-05-09 09:17:00,58.5,57.9,29.97,ESE,116,0.0,0.0,98,0.00,,---,0.47,258.00,VWS V14.01,2013-05-09 13:17:00,
2013-05-09 09:22:00,58.8,58.2,29.97,ESE,116,0.0,0.0,98,0.00,,---,0.47,134.00,VWS V14.01,2013-05-09 13:22:00,
2013-05-09 09:27:00,58.6,58.0,29.97,ESE,116,0.0,0.0,98,0.00,,---,0.47,221.00,VWS V14.01,2013-05-09 13:27:00,
2013-05-09 09:32:00,58.6,57.8,29.97,ESE,116,0.0,0.0,97,0.00,,---,0.47,174.00,VWS V14.01,2013-05-09 13:32:00,
2013-05-09 09:37:00,58.6,57.8,29.97,ESE,116,0.0,0.0,97,0.00,,---,0.47,146.00,VWS V14.01,2013-05-09 13:37:00,
2013-05-09 09:42:00,58.6,57.5,29.97,ESE,116,0.0,0.0,96,0.00,,---,0.47,327.00,VWS V14.01,2013-05-09 13:42:00,
2013-05-09 09:47:00,59.1,57.7,29.96,ESE,116,0.0,0.0,95,0.00,,---,0.47,332.00,VWS V14.01,2013-05-09 13:47:00,
2013-05-09 09:52:00,59.8,58.7,29.96,ESE,116,0.0,0.0,96,0.00,,---,0.47,330.00,VWS V14.01,2013-05-09 13:52:00,
2013-05-09 09:57:00,60.0,58.0,29.97,East,81,0.0,0.0,93,0.00,,---,0.47,323.00,VWS V14.01,2013-05-09 13:57:00,
2013-05-09 10:02:00,60.3,58.0,29.97,East,82,0.0,0.0,92,0.00,,---,0.47,336.00,VWS V14.01,2013-05-09 14:02:00,
2013-05-09 10:07:00,60.6,58.0,29.96,East,82,0.0,0.0,91,0.00,,---,0.47,791.00,VWS V14.01,2013-05-09 14:07:00,
2013-05-09 10:12:00,61.4,58.1,29.96,East,82,0.0,0.0,89,0.00,,---,0.47,380.00,VWS V14.01,2013-05-09 14:12:00,
2013-05-09 10:17:00,61.1,57.5,29.96,East,81,0.0,0.0,88,0.00,,---,0.47,241.00,VWS V14.01,2013-05-09 14:17:00,
2013-05-09 10:22:00,61.1,56.9,29.96,East,82,0.0,0.0,86,0.00,,---,0.47,218.00,VWS V14.01,2013-05-09 14:22:00,
2013-05-09 10:27:00,61.1,56.9,29.96,East,82,0.0,0.0,86,0.00,,---,0.47,213.00,VWS V14.01,2013-05-09 14:27:00,
2013-05-09 10:32:00,61.1,56.9,29.96,SE,130,0.0,0.0,86,0.00,,---,0.47,288.00,VWS V14.01,2013-05-09 14:32:00,
2013-05-09 10:37:00,61.5,57.3,29.96,East,88,0.0,3.0,86,0.00,,---,0.47,311.00,VWS V14.01,2013-05-09 14:37:00,
2013-05-09 10:42:00,61.7,56.5,29.97,East,81,0.0,3.0,83,0.00,,---,0.47,299.00,VWS V14.01,2013-05-09 14:42:00,
2013-05-09 10:47:00,62.0,56.8,29.96,SE,130,1.0,1.0,83,0.00,,---,0.47,392.00,VWS V14.01,2013-05-09 14:47:00,
2013-05-09 10:52:00,62.2,57.0,29.97,SE,129,0.0,1.0,83,0.00,,---,0.47,234.00,VWS V14.01,2013-05-09 14:52:00,
2013-05-09 10:57:00,62.0,56.8,29.96,ESE,112,0.0,5.0,83,0.00,,---,0.47,424.00,VWS V14.01,2013-05-09 14:57:00,
2013-05-09 11:02:00,61.9,57.3,29.96,SSE,156,2.0,3.0,85,0.00,,---,0.47,272.00,VWS V14.01,2013-05-09 15:02:00,
2013-05-09 11:07:00,61.9,57.0,29.96,ESE,120,0.0,3.0,84,0.00,,---,0.47,485.00,VWS V14.01,2013-05-09 15:07:00,
2013-05-09 11:12:00,62.5,58.3,29.96,ESE,109,0.0,3.0,86,0.00,,---,0.47,292.00,VWS V14.01,2013-05-09 15:12:00,
2013-05-09 11:17:00,62.5,57.9,29.96,East,100,2.0,2.0,85,0.00,,---,0.47,281.00,VWS V14.01,2013-05-09 15:17:00,
2013-05-09 11:22:00,62.3,57.4,29.96,ESE,119,0.0,3.0,84,0.00,,---,0.47,176.00,VWS V14.01,2013-05-09 15:22:00,
2013-05-09 11:27:00,62.3,57.7,29.96,ESE,119,0.0,3.0,85,0.00,,---,0.47,301.00,VWS V14.01,2013-05-09 15:27:00,
2013-05-09 11:32:00,62.2,56.6,29.96,SSE,153,0.0,5.0,82,0.00,,---,0.47,258.00,VWS V14.01,2013-05-09 15:32:00,
2013-05-09 11:37:00,62.0,56.5,29.96,SE,144,0.0,5.0,82,0.00,,---,0.47,185.00,VWS V14.01,2013-05-09 15:37:00,
2013-05-09 11:42:00,61.9,56.0,29.96,SE,138,0.0,5.0,81,0.00,,---,0.47,216.00,VWS V14.01,2013-05-09 15:42:00,
2013-05-09 11:47:00,62.2,57.0,29.95,SSW,194,0.0,2.0,83,0.00,,---,0.47,320.00,VWS V14.01,2013-05-09 15:47:00,
2013-05-09 11:52:00,62.3,56.7,29.95,SSW,194,0.0,2.0,82,0.00,,---,0.47,345.00,VWS V14.01,2013-05-09 15:52:00,
2013-05-09 11:57:00,62.5,55.9,29.95,SSW,194,0.0,2.0,79,0.00,,---,0.47,471.00,VWS V14.01,2013-05-09 15:57:00,
2013-05-09 12:02:00,62.6,56.3,29.95,SSW,194,0.0,0.0,80,0.00,,---,0.47,311.00,VWS V14.01,2013-05-09 16:02:00,
2013-05-09 12:07:00,62.6,55.7,29.95,South,188,0.0,0.0,78,0.00,,---,0.47,311.00,VWS V14.01,2013-05-09 16:07:00,
2013-05-09 12:12:00,63.0,55.7,29.95,South,188,0.0,0.0,77,0.00,,---,0.47,299.00,VWS V14.01,2013-05-09 16:12:00,
2013-05-09 12:17:00,63.0,55.7,29.95,South,186,0.0,0.0,77,0.00,,---,0.47,229.00,VWS V14.01,2013-05-09 16:17:00,
2013-05-09 12:22:00,63.3,56.0,29.95,South,186,0.0,0.0,77,0.00,,---,0.47,211.00,VWS V14.01,2013-05-09 16:22:00,
2013-05-09 12:27:00,63.4,56.4,29.94,South,186,0.0,0.0,78,0.00,,---,0.47,155.00,VWS V14.01,2013-05-09 16:27:00,
2013-05-09 12:32:00,63.3,57.0,29.94,South,186,0.0,0.0,80,0.00,,---,0.47,264.00,VWS V14.01,2013-05-09 16:32:00,
2013-05-09 12:37:00,63.4,56.8,29.94,South,187,0.0,0.0,79,0.00,,---,0.47,262.00,VWS V14.01,2013-05-09 16:37:00,
2013-05-09 12:43:00,63.3,56.0,29.94,South,186,0.0,1.0,77,0.00,,---,0.47,283.00,VWS V14.01,2013-05-09 16:43:00,
2013-05-09 12:48:00,63.1,55.8,29.94,South,184,2.0,2.0,77,0.00,,---,0.47,318.00,VWS V14.01,2013-05-09 16:48:00,
2013-05-09 12:53:00,63.4,56.1,29.94,South,183,0.0,2.0,77,0.00,,---,0.47,330.00,VWS V14.01,2013-05-09 16:53:00,
2013-05-09 12:58:00,63.9,56.9,29.94,South,183,0.0,2.0,78,0.00,,---,0.47,278.00,VWS V14.01,2013-05-09 16:58:00,
2013-05-09 13:03:00,63.6,55.5,29.94,South,183,0.0,0.0,75,0.00,,---,0.47,230.00,VWS V14.01,2013-05-09 17:03:00,
2013-05-09 13:08:00,63.8,56.5,29.93,South,176,2.0,2.0,77,0.00,,---,0.47,241.00,VWS V14.01,2013-05-09 17:08:00,
2013-05-09 13:13:00,63.9,57.3,29.93,South,176,0.0,2.0,79,0.00,,---,0.47,207.00,VWS V14.01,2013-05-09 17:13:00,
2013-05-09 13:18:00,63.8,56.1,29.93,South,171,0.0,2.0,76,0.00,,---,0.47,199.00,VWS V14.01,2013-05-09 17:18:00,
2013-05-09 13:23:00,63.6,55.5,29.93,SSE,147,0.0,6.0,75,0.00,,---,0.47,186.00,VWS V14.01,2013-05-09 17:23:00,
2013-05-09 13:28:00,63.3,55.2,29.93,SSE,150,0.0,6.0,75,0.00,,---,0.47,172.00,VWS V14.01,2013-05-09 17:28:00,
2013-05-09 13:33:00,63.3,55.6,29.93,SE,142,0.0,3.0,76,0.00,,---,0.47,185.00,VWS V14.01,2013-05-09 17:33:00,
2013-05-09 13:38:00,63.3,56.3,29.93,SE,143,0.0,3.0,78,0.00,,---,0.47,197.00,VWS V14.01,2013-05-09 17:38:00,
2013-05-09 13:43:00,63.3,56.0,29.93,South,175,0.0,3.0,77,0.00,,---,0.47,243.00,VWS V14.01,2013-05-09 17:43:00,
2013-05-09 13:48:00,63.1,56.1,29.93,SSE,163,0.0,1.0,78,0.00,,---,0.47,192.00,VWS V14.01,2013-05-09 17:48:00,
2013-05-09 13:53:00,63.0,56.0,29.93,South,181,0.0,3.0,78,0.00,,---,0.47,151.00,VWS V14.01,2013-05-09 17:53:00,
2013-05-09 13:58:00,62.8,55.8,29.93,SSW,192,0.0,3.0,78,0.00,,---,0.47,171.00,VWS V14.01,2013-05-09 17:58:00,
2013-05-09 14:03:00,62.8,56.2,29.93,SE,126,0.0,4.0,79,0.00,,---,0.47,199.00,VWS V14.01,2013-05-09 18:03:00,
2013-05-09 14:08:00,62.6,56.7,29.92,SSE,158,0.0,7.0,81,0.00,,---,0.47,274.00,VWS V14.01,2013-05-09 18:08:00,
2013-05-09 14:13:00,62.5,55.6,29.92,SW,225,0.0,7.0,78,0.00,,---,0.47,283.00,VWS V14.01,2013-05-09 18:13:00,
2013-05-09 14:18:00,62.5,55.2,29.92,South,173,3.0,6.0,77,0.00,,---,0.47,306.00,VWS V14.01,2013-05-09 18:18:00,
2013-05-09 14:23:00,62.5,55.6,29.92,ESE,107,0.0,8.0,78,0.00,,---,0.47,278.00,VWS V14.01,2013-05-09 18:23:00,
2013-05-09 14:28:00,62.0,55.8,29.92,South,172,0.0,8.0,80,0.00,,---,0.47,234.00,VWS V14.01,2013-05-09 18:28:00,
2013-05-09 14:33:00,61.5,56.0,29.92,South,172,0.0,0.0,82,0.00,,---,0.47,209.00,VWS V14.01,2013-05-09 18:33:00,
2013-05-09 14:38:00,61.2,57.0,29.92,SE,128,2.0,6.0,86,0.01,,---,0.48,188.00,VWS V14.01,2013-05-09 18:38:00,
2013-05-09 14:43:00,60.9,56.7,29.91,ESE,114,0.0,6.0,86,0.01,,---,0.48,169.00,VWS V14.01,2013-05-09 18:43:00,
2013-05-09 14:48:00,60.8,56.9,29.91,SE,140,0.0,0.0,87,0.01,,---,0.48,151.00,VWS V14.01,2013-05-09 18:48:00,
2013-05-09 14:53:00,60.9,57.3,29.91,SE,132,0.0,2.0,88,0.01,,---,0.48,134.00,VWS V14.01,2013-05-09 18:53:00,
2013-05-09 14:58:00,60.8,57.5,29.90,SE,132,0.0,2.0,89,0.01,,---,0.48,132.00,VWS V14.01,2013-05-09 18:58:00,
2013-05-09 15:03:00,60.4,57.5,29.90,SE,132,0.0,0.0,90,0.01,,---,0.48,146.00,VWS V14.01,2013-05-09 19:03:00,
2013-05-09 15:08:00,60.4,57.5,29.90,SE,132,0.0,0.0,90,0.01,,---,0.48,139.00,VWS V14.01,2013-05-09 19:08:00,
2013-05-09 15:13:00,60.4,57.8,29.91,SE,132,2.0,2.0,91,0.01,,---,0.48,135.00,VWS V14.01,2013-05-09 19:13:00,
2013-05-09 15:18:00,60.4,57.8,29.91,SE,132,0.0,0.0,91,0.01,,---,0.48,134.00,VWS V14.01,2013-05-09 19:18:00,
2013-05-09 15:23:00,60.6,58.3,29.91,SE,132,0.0,0.0,92,0.01,,---,0.48,125.00,VWS V14.01,2013-05-09 19:23:00,
2013-05-09 15:28:00,60.4,57.8,29.91,SE,132,0.0,0.0,91,0.01,,---,0.48,113.00,VWS V14.01,2013-05-09 19:28:00,
2013-05-09 15:33:00,60.4,57.8,29.90,SE,132,0.0,0.0,91,0.01,,---,0.48,104.00,VWS V14.01,2013-05-09 19:33:00,
2013-05-09 15:38:00,60.6,58.3,29.90,SE,132,0.0,0.0,92,0.01,,---,0.48,97.00,VWS V14.01,2013-05-09 19:38:00,
2013-05-09 15:43:00,60.8,58.5,29.89,SE,132,0.0,0.0,92,0.01,,---,0.48,86.00,VWS V14.01,2013-05-09 19:43:00,
2013-05-09 15:48:00,60.4,58.4,29.89,SE,132,0.0,0.0,93,0.00,,---,0.48,107.00,VWS V14.01,2013-05-09 19:48:00,
2013-05-09 15:53:00,60.4,58.4,29.90,SE,132,0.0,0.0,93,0.00,,---,0.48,137.00,VWS V14.01,2013-05-09 19:53:00,
2013-05-09 15:58:00,60.4,58.1,29.90,SE,132,0.0,0.0,92,0.00,,---,0.48,163.00,VWS V14.01,2013-05-09 19:58:00,
2013-05-09 16:03:00,60.6,58.3,29.90,SE,132,0.0,0.0,92,0.00,,---,0.48,137.00,VWS V14.01,2013-05-09 20:03:00,
2013-05-09 16:08:00,60.6,58.3,29.90,SE,132,0.0,0.0,92,0.00,,---,0.48,155.00,VWS V14.01,2013-05-09 20:08:00,
2013-05-09 16:13:00,60.4,57.8,29.90,SE,132,0.0,0.0,91,0.00,,---,0.48,167.00,VWS V14.01,2013-05-09 20:13:00,
2013-05-09 16:18:00,60.4,57.2,29.89,SSE,159,4.0,5.0,89,0.00,,---,0.48,181.00,VWS V14.01,2013-05-09 20:18:00,
2013-05-09 16:23:00,60.6,57.0,29.89,SSE,155,0.0,5.0,88,0.00,,---,0.48,204.00,VWS V14.01,2013-05-09 20:23:00,
2013-05-09 16:28:00,60.8,56.9,29.89,SSE,155,0.0,5.0,87,0.00,,---,0.48,221.00,VWS V14.01,2013-05-09 20:28:00,
2013-05-09 16:33:00,60.8,56.6,29.88,SSE,154,0.0,0.0,86,0.00,,---,0.48,234.00,VWS V14.01,2013-05-09 20:33:00,
2013-05-09 16:38:00,60.9,56.7,29.88,SSE,156,0.0,2.0,86,0.00,,---,0.48,236.00,VWS V14.01,2013-05-09 20:38:00,
2013-05-09 16:43:00,61.1,57.2,29.88,SSE,158,1.0,5.0,87,0.00,,---,0.48,221.00,VWS V14.01,2013-05-09 20:43:00,
2013-05-09 16:48:00,61.1,56.9,29.88,East,92,0.0,3.0,86,0.00,,---,0.48,200.00,VWS V14.01,2013-05-09 20:48:00,
2013-05-09 16:53:00,61.1,56.9,29.88,ESE,117,0.0,3.0,86,0.00,,---,0.48,200.00,VWS V14.01,2013-05-09 20:53:00,
2013-05-09 16:58:00,61.2,57.0,29.88,SE,137,5.0,5.0,86,0.00,,---,0.48,200.00,VWS V14.01,2013-05-09 20:58:00,
2013-05-09 17:03:00,61.4,57.2,29.88,SE,126,0.0,1.0,86,0.00,,---,0.48,199.00,VWS V14.01,2013-05-09 21:03:00,
2013-05-09 17:08:00,61.4,56.9,29.88,SE,126,1.0,1.0,85,0.00,,---,0.48,199.00,VWS V14.01,2013-05-09 21:08:00,
2013-05-09 17:13:00,61.4,56.5,29.88,SSE,153,0.0,3.0,84,0.00,,---,0.48,195.00,VWS V14.01,2013-05-09 21:13:00,
2013-05-09 17:18:00,61.4,56.9,29.88,SE,142,0.0,0.0,85,0.00,,---,0.48,195.00,VWS V14.01,2013-05-09 21:18:00,
2013-05-09 17:23:00,61.4,56.2,29.88,SE,142,0.0,0.0,83,0.00,,---,0.48,186.00,VWS V14.01,2013-05-09 21:23:00,
2013-05-09 17:28:00,61.4,56.5,29.88,SE,140,0.0,2.0,84,0.00,,---,0.48,171.00,VWS V14.01,2013-05-09 21:28:00,
2013-05-09 17:33:00,61.4,56.2,29.88,SE,133,0.0,3.0,83,0.00,,---,0.48,156.00,VWS V14.01,2013-05-09 21:33:00,
2013-05-09 17:38:00,61.4,56.2,29.87,SSE,165,0.0,3.0,83,0.00,,---,0.48,141.00,VWS V14.01,2013-05-09 21:38:00,
2013-05-09 17:43:00,61.4,56.2,29.87,SSE,162,0.0,3.0,83,0.00,,---,0.48,139.00,VWS V14.01,2013-05-09 21:43:00,
2013-05-09 17:49:00,61.4,56.2,29.87,SSE,162,0.0,0.0,83,0.00,,---,0.48,123.00,VWS V14.01,2013-05-09 21:49:00,
2013-05-09 17:54:00,61.4,56.5,29.87,SSE,162,0.0,0.0,84,0.00,,---,0.48,102.00,VWS V14.01,2013-05-09 21:54:00,
2013-05-09 17:59:00,61.5,57.0,29.88,SSE,163,0.0,2.0,85,0.00,,---,0.48,77.00,VWS V14.01,2013-05-09 21:59:00,
2013-05-09 18:04:00,61.5,57.0,29.88,SSE,163,0.0,0.0,85,0.00,,---,0.48,60.00,VWS V14.01,2013-05-09 22:04:00,
2013-05-09 18:09:00,61.4,56.9,29.88,SSE,160,0.0,4.0,85,0.00,,---,0.48,49.00,VWS V14.01,2013-05-09 22:09:00,
2013-05-09 18:14:00,61.1,56.2,29.88,ENE,74,0.0,4.0,84,0.00,,---,0.48,51.00,VWS V14.01,2013-05-09 22:14:00,
2013-05-09 18:19:00,60.8,56.3,29.88,East,82,0.0,3.0,85,0.00,,---,0.48,51.00,VWS V14.01,2013-05-09 22:19:00,
2013-05-09 18:24:00,60.6,56.4,29.88,East,84,0.0,3.0,86,0.00,,---,0.48,44.00,VWS V14.01,2013-05-09 22:24:00,
2013-05-09 18:29:00,60.4,56.5,29.88,East,84,0.0,3.0,87,0.00,,---,0.48,42.00,VWS V14.01,2013-05-09 22:29:00,
2013-05-09 18:34:00,60.3,56.4,29.88,East,86,0.0,0.0,87,0.00,,---,0.48,44.00,VWS V14.01,2013-05-09 22:34:00,
2013-05-09 18:39:00,60.1,56.2,29.88,East,86,0.0,0.0,87,0.00,,---,0.48,39.00,VWS V14.01,2013-05-09 22:39:00,
2013-05-09 18:44:00,60.0,56.4,29.89,East,86,0.0,1.0,88,0.00,,---,0.48,28.00,VWS V14.01,2013-05-09 22:44:00,
2013-05-09 18:49:00,60.0,56.1,29.88,ESE,110,0.0,0.0,87,0.00,,---,0.48,21.00,VWS V14.01,2013-05-09 22:49:00,
2013-05-09 18:54:00,60.0,56.1,29.89,ESE,111,0.0,4.0,87,0.00,,---,0.48,18.00,VWS V14.01,2013-05-09 22:54:00,
2013-05-09 18:59:00,59.8,56.2,29.89,ESE,111,0.0,4.0,88,0.00,,---,0.48,19.00,VWS V14.01,2013-05-09 22:59:00,
2013-05-09 19:04:00,59.8,56.2,29.89,South,170,0.0,2.0,88,0.00,,---,0.48,14.00,VWS V14.01,2013-05-09 23:04:00,
2013-05-09 19:09:00,59.7,55.8,29.89,SSE,154,0.0,4.0,87,0.00,,---,0.48,12.00,VWS V14.01,2013-05-09 23:09:00,
2013-05-09 19:14:00,59.5,55.6,29.89,SSE,159,6.0,6.0,87,0.00,,---,0.48,11.00,VWS V14.01,2013-05-09 23:14:00,
2013-05-09 19:19:00,59.4,55.5,29.89,SE,140,0.0,2.0,87,0.00,,---,0.48,9.00,VWS V14.01,2013-05-09 23:19:00,
2013-05-09 19:24:00,59.1,55.5,29.89,SE,138,0.0,3.0,88,0.00,,---,0.48,7.00,VWS V14.01,2013-05-09 23:24:00,
2013-05-09 19:29:00,58.8,55.6,29.89,SE,133,1.0,3.0,89,0.00,,---,0.48,7.00,VWS V14.01,2013-05-09 23:29:00,
2013-05-09 19:34:00,58.6,55.7,29.89,ESE,119,0.0,0.0,90,0.00,,---,0.48,5.00,VWS V14.01,2013-05-09 23:34:00,
2013-05-09 19:39:00,58.5,55.6,29.89,ESE,119,0.0,0.0,90,0.00,,---,0.48,0.00,VWS V14.01,2013-05-09 23:39:00,
2013-05-09 19:44:00,58.2,55.3,29.90,ESE,119,0.0,0.0,90,0.00,,---,0.48,0.00,VWS V14.01,2013-05-09 23:44:00,
2013-05-09 19:49:00,57.9,55.3,29.90,ESE,119,0.0,0.0,91,0.00,,---,0.48,0.00,VWS V14.01,2013-05-09 23:49:00,
2013-05-09 19:54:00,57.4,55.1,29.90,ESE,119,0.0,0.0,92,0.00,,---,0.48,0.00,VWS V14.01,2013-05-09 23:54:00,
2013-05-09 19:59:00,57.1,54.8,29.90,ESE,119,0.0,0.0,92,0.00,,---,0.48,0.00,VWS V14.01,2013-05-09 23:59:00,
2013-05-09 20:04:00,56.9,54.9,29.90,ESE,119,0.0,0.0,93,0.00,,---,0.48,0.00,VWS V14.01,2013-05-10 00:04:00,
2013-05-09 20:09:00,56.8,54.8,29.90,ESE,119,0.0,0.0,93,0.00,,---,0.48,0.00,VWS V14.01,2013-05-10 00:09:00,
2013-05-09 20:14:00,56.6,54.9,29.90,ESE,119,0.0,0.0,94,0.00,,---,0.48,0.00,VWS V14.01,2013-05-10 00:14:00,
2013-05-09 20:19:00,56.5,54.8,29.90,ESE,119,0.0,0.0,94,0.00,,---,0.48,0.00,VWS V14.01,2013-05-10 00:19:00,
2013-05-09 20:24:00,56.5,55.1,29.90,ESE,119,0.0,0.0,95,0.00,,---,0.48,0.00,VWS V14.01,2013-05-10 00:24:00,
2013-05-09 20:29:00,56.4,55.0,29.90,ESE,119,0.0,0.0,95,0.00,,---,0.48,0.00,VWS V14.01,2013-05-10 00:29:00,
2013-05-09 20:34:00,56.4,55.0,29.90,ESE,119,0.0,0.0,95,0.00,,---,0.48,0.00,VWS V14.01,2013-05-10 00:34:00,
2013-05-09 20:39:00,56.4,55.3,29.90,ESE,119,0.0,0.0,96,0.00,,---,0.48,0.00,VWS V14.01,2013-05-10 00:39:00,
2013-05-09 20:44:00,56.2,55.1,29.90,ESE,119,0.0,0.0,96,0.00,,---,0.48,0.00,VWS V14.01,2013-05-10 00:44:00,
2013-05-09 20:49:00,56.2,55.1,29.90,ESE,119,0.0,0.0,96,0.00,,---,0.48,0.00,VWS V14.01,2013-05-10 00:49:00,
2013-05-09 20:54:00,56.2,55.1,29.90,ESE,119,0.0,0.0,96,0.00,,---,0.48,0.00,VWS V14.01,2013-05-10 00:54:00,
2013-05-09 20:59:00,56.2,55.1,29.90,ESE,119,0.0,0.0,96,0.00,,---,0.48,0.00,VWS V14.01,2013-05-10 00:59:00,
2013-05-09 21:04:00,56.1,55.0,29.90,ESE,119,0.0,0.0,96,0.00,,---,0.48,0.00,VWS V14.01,2013-05-10 01:04:00,
2013-05-09 21:09:00,56.1,55.0,29.90,ESE,119,0.0,0.0,96,0.00,,---,0.48,0.00,VWS V14.01,2013-05-10 01:09:00,
2013-05-09 21:14:00,55.9,54.8,29.90,ESE,119,0.0,0.0,96,0.00,,---,0.48,0.00,VWS V14.01,2013-05-10 01:14:00,
2013-05-09 21:19:00,55.8,54.7,29.91,ESE,119,0.0,0.0,96,0.00,,---,0.48,0.00,VWS V14.01,2013-05-10 01:19:00,
2013-05-09 21:24:00,55.6,54.5,29.91,ESE,119,0.0,0.0,96,0.00,,---,0.48,0.00,VWS V14.01,2013-05-10 01:24:00,
2013-05-09 21:29:00,55.6,54.8,29.91,ESE,119,0.0,0.0,97,0.00,,---,0.48,0.00,VWS V14.01,2013-05-10 01:29:00,
2013-05-09 21:34:00,55.6,54.8,29.91,ESE,119,0.0,0.0,97,0.00,,---,0.48,0.00,VWS V14.01,2013-05-10 01:34:00,
2013-05-09 21:39:00,55.6,54.8,29.91,ESE,119,0.0,0.0,97,0.00,,---,0.48,0.00,VWS V14.01,2013-05-10 01:39:00,
2013-05-09 21:44:00,55.6,54.8,29.91,ESE,119,0.0,0.0,97,0.00,,---,0.48,0.00,VWS V14.01,2013-05-10 01:44:00,
2013-05-09 21:49:00,55.5,54.7,29.91,ESE,119,0.0,0.0,97,0.00,,---,0.48,0.00,VWS V14.01,2013-05-10 01:49:00,
2013-05-09 21:54:00,55.3,54.5,29.91,ESE,119,0.0,0.0,97,0.00,,---,0.48,0.00,VWS V14.01,2013-05-10 01:54:00,
2013-05-09 21:59:00,55.2,54.4,29.91,ESE,119,0.0,0.0,97,0.00,,---,0.48,0.00,VWS V14.01,2013-05-10 01:59:00,
2013-05-09 22:04:00,55.2,54.4,29.91,ESE,119,0.0,0.0,97,0.00,,---,0.48,0.00,VWS V14.01,2013-05-10 02:04:00,
2013-05-09 22:09:00,55.0,54.2,29.91,ESE,119,0.0,0.0,97,0.00,,---,0.48,0.00,VWS V14.01,2013-05-10 02:09:00,
2013-05-09 22:14:00,54.7,54.2,29.91,ESE,119,0.0,0.0,98,0.00,,---,0.48,0.00,VWS V14.01,2013-05-10 02:14:00,
2013-05-09 22:19:00,54.6,54.0,29.91,ESE,119,0.0,0.0,98,0.00,,---,0.48,0.00,VWS V14.01,2013-05-10 02:19:00,
2013-05-09 22:24:00,54.6,54.0,29.90,ESE,119,0.0,0.0,98,0.00,,---,0.48,0.00,VWS V14.01,2013-05-10 02:24:00,
2013-05-09 22:29:00,54.4,53.8,29.90,ESE,119,0.0,0.0,98,0.00,,---,0.48,0.00,VWS V14.01,2013-05-10 02:29:00,
2013-05-09 22:34:00,54.4,53.8,29.90,ESE,119,0.0,0.0,98,0.00,,---,0.48,0.00,VWS V14.01,2013-05-10 02:34:00,
2013-05-09 22:39:00,54.4,53.8,29.90,ESE,119,0.0,0.0,98,0.00,,---,0.48,0.00,VWS V14.01,2013-05-10 02:39:00,
2013-05-09 22:44:00,54.4,53.8,29.90,ESE,119,0.0,0.0,98,0.00,,---,0.48,0.00,VWS V14.01,2013-05-10 02:44:00,
2013-05-09 22:49:00,54.3,53.8,29.90,ESE,119,0.0,2.0,98,0.00,,---,0.48,0.00,VWS V14.01,2013-05-10 02:49:00,
2013-05-09 22:54:00,54.6,54.0,29.89,ESE,115,0.0,4.0,98,0.00,,---,0.48,0.00,VWS V14.01,2013-05-10 02:54:00,
2013-05-09 22:59:00,54.9,54.3,29.89,ESE,115,0.0,4.0,98,0.00,,---,0.48,0.00,VWS V14.01,2013-05-10 02:59:00,
2013-05-09 23:04:00,55.0,54.7,29.89,ESE,116,0.0,1.0,99,0.00,,---,0.48,0.00,VWS V14.01,2013-05-10 03:04:00,
2013-05-09 23:09:00,55.2,54.9,29.89,ESE,116,1.0,1.0,99,0.00,,---,0.48,0.00,VWS V14.01,2013-05-10 03:09:00,
2013-05-09 23:14:00,55.3,55.0,29.90,ESE,117,0.0,1.0,99,0.00,,---,0.48,0.00,VWS V14.01,2013-05-10 03:14:00,
2013-05-09 23:19:00,55.5,55.2,29.90,ESE,116,0.0,0.0,99,0.00,,---,0.48,0.00,VWS V14.01,2013-05-10 03:19:00,
2013-05-09 23:24:00,55.5,55.2,29.89,ESE,116,0.0,0.0,99,0.00,,---,0.48,0.00,VWS V14.01,2013-05-10 03:24:00,
2013-05-09 23:29:00,55.2,54.9,29.90,ESE,117,0.0,0.0,99,0.00,,---,0.48,0.00,VWS V14.01,2013-05-10 03:29:00,
2013-05-09 23:34:00,55.0,54.7,29.89,ESE,116,0.0,0.0,99,0.00,,---,0.48,0.00,VWS V14.01,2013-05-10 03:34:00,
2013-05-09 23:39:00,55.2,54.9,29.89,ESE,117,0.0,0.0,99,0.00,,---,0.48,0.00,VWS V14.01,2013-05-10 03:39:00,
2013-05-09 23:44:00,55.2,54.9,29.89,ESE,117,0.0,0.0,99,0.00,,---,0.48,0.00,VWS V14.01,2013-05-10 03:44:00,
2013-05-09 23:49:00,55.0,54.7,29.89,ESE,116,0.0,0.0,99,0.00,,---,0.48,0.00,VWS V14.01,2013-05-10 03:49:00,
2013-05-09 23:54:00,54.9,54.6,29.89,ESE,117,0.0,0.0,99,0.00,,---,0.48,0.00,VWS V14.01,2013-05-10 03:54:00,
2013-05-09 23:59:00,55.0,54.7,29.89,ESE,116,0.0,0.0,99,0.00,,---,0.48,0.00,VWS V14.01,2013-05-10 03:59:00,